sensor_id;sensor_type;location;lat;lon;timestamp;P1;durP1;ratioP1;P2;durP2;ratioP2
22603;SDS011;11469;49.024;8.246;2022-11-02T00:01:40;14.27;;;7.15;;
22603;SDS011;11469;49.024;8.246;2022-11-02T00:04:07;11.05;;;4.75;;
22603;SDS011;11469;49.024;8.246;2022-11-02T00:06:33;9.68;;;1.90;;
22603;SDS011;11469;49.024;8.246;2022-11-02T00:08:59;7.45;;;2.10;;
22603;SDS011;11469;49.024;8.246;2022-11-02T00:11:24;6.75;;;1.70;;
22603;SDS011;11469;49.024;8.246;2022-11-02T00:13:50;16.45;;;2.38;;
22603;SDS011;11469;49.024;8.246;2022-11-02T00:16:15;7.05;;;2.30;;
22603;SDS011;11469;49.024;8.246;2022-11-02T00:18:43;10.15;;;3.28;;
22603;SDS011;11469;49.024;8.246;2022-11-02T00:21:11;8.55;;;4.35;;
22603;SDS011;11469;49.024;8.246;2022-11-02T00:23:39;8.73;;;3.28;;
22603;SDS011;11469;49.024;8.246;2022-11-02T00:26:05;15.25;;;3.33;;
22603;SDS011;11469;49.024;8.246;2022-11-02T00:28:31;8.05;;;1.98;;
22603;SDS011;11469;49.024;8.246;2022-11-02T00:30:57;9.30;;;3.85;;
22603;SDS011;11469;49.024;8.246;2022-11-02T00:33:22;7.57;;;3.15;;
22603;SDS011;11469;49.024;8.246;2022-11-02T00:35:47;8.60;;;2.30;;
22603;SDS011;11469;49.024;8.246;2022-11-02T00:38:13;12.00;;;2.42;;
22603;SDS011;11469;49.024;8.246;2022-11-02T00:40:38;7.22;;;2.63;;
22603;SDS011;11469;49.024;8.246;2022-11-02T00:43:03;9.52;;;2.55;;
22603;SDS011;11469;49.024;8.246;2022-11-02T00:45:30;10.23;;;2.22;;
22603;SDS011;11469;49.024;8.246;2022-11-02T00:47:56;7.15;;;2.33;;
22603;SDS011;11469;49.024;8.246;2022-11-02T00:50:21;8.07;;;2.53;;
22603;SDS011;11469;49.024;8.246;2022-11-02T00:52:46;32.33;;;9.05;;
22603;SDS011;11469;49.024;8.246;2022-11-02T00:55:12;32.47;;;11.77;;
22603;SDS011;11469;49.024;8.246;2022-11-02T00:57:39;35.10;;;11.43;;
22603;SDS011;11469;49.024;8.246;2022-11-02T01:00:05;32.50;;;11.77;;
22603;SDS011;11469;49.024;8.246;2022-11-02T01:02:32;34.92;;;11.20;;
22603;SDS011;11469;49.024;8.246;2022-11-02T01:04:58;17.50;;;4.60;;
22603;SDS011;11469;49.024;8.246;2022-11-02T01:07:24;23.33;;;4.32;;
22603;SDS011;11469;49.024;8.246;2022-11-02T01:09:51;12.57;;;3.60;;
22603;SDS011;11469;49.024;8.246;2022-11-02T01:12:16;25.15;;;4.28;;
22603;SDS011;11469;49.024;8.246;2022-11-02T01:14:41;20.92;;;4.68;;
22603;SDS011;11469;49.024;8.246;2022-11-02T01:17:07;22.40;;;4.60;;
22603;SDS011;11469;49.024;8.246;2022-11-02T01:19:32;29.58;;;6.72;;
22603;SDS011;11469;49.024;8.246;2022-11-02T01:21:57;16.88;;;3.30;;
22603;SDS011;11469;49.024;8.246;2022-11-02T01:24:23;16.60;;;4.40;;
22603;SDS011;11469;49.024;8.246;2022-11-02T01:26:49;19.27;;;3.38;;
22603;SDS011;11469;49.024;8.246;2022-11-02T01:29:16;20.20;;;4.60;;
22603;SDS011;11469;49.024;8.246;2022-11-02T01:31:41;19.65;;;3.80;;
22603;SDS011;11469;49.024;8.246;2022-11-02T01:34:07;16.92;;;2.88;;
22603;SDS011;11469;49.024;8.246;2022-11-02T01:36:32;19.63;;;3.28;;
22603;SDS011;11469;49.024;8.246;2022-11-02T01:38:57;24.75;;;3.17;;
22603;SDS011;11469;49.024;8.246;2022-11-02T01:41:23;18.42;;;2.95;;
22603;SDS011;11469;49.024;8.246;2022-11-02T01:43:50;19.73;;;3.15;;
22603;SDS011;11469;49.024;8.246;2022-11-02T01:46:19;15.13;;;2.80;;
22603;SDS011;11469;49.024;8.246;2022-11-02T01:51:28;14.38;;;2.95;;
22603;SDS011;11469;49.024;8.246;2022-11-02T01:53:59;16.48;;;2.70;;
22603;SDS011;11469;49.024;8.246;2022-11-02T01:56:30;20.00;;;3.00;;
22603;SDS011;11469;49.024;8.246;2022-11-02T01:58:58;13.18;;;2.75;;
22603;SDS011;11469;49.024;8.246;2022-11-02T02:01:26;10.73;;;2.58;;
22603;SDS011;11469;49.024;8.246;2022-11-02T02:03:53;16.50;;;2.60;;
22603;SDS011;11469;49.024;8.246;2022-11-02T02:06:20;17.58;;;2.53;;
22603;SDS011;11469;49.024;8.246;2022-11-02T02:08:47;15.18;;;2.92;;
22603;SDS011;11469;49.024;8.246;2022-11-02T02:13:58;12.88;;;2.38;;
22603;SDS011;11469;49.024;8.246;2022-11-02T02:18:58;14.18;;;2.72;;
22603;SDS011;11469;49.024;8.246;2022-11-02T02:30:07;14.82;;;2.28;;
22603;SDS011;11469;49.024;8.246;2022-11-02T02:32:44;10.02;;;2.40;;
22603;SDS011;11469;49.024;8.246;2022-11-02T02:38:15;12.85;;;2.00;;
22603;SDS011;11469;49.024;8.246;2022-11-02T02:40:56;15.43;;;2.92;;
22603;SDS011;11469;49.024;8.246;2022-11-02T02:43:31;11.75;;;2.72;;
22603;SDS011;11469;49.024;8.246;2022-11-02T02:45:59;12.70;;;2.72;;
22603;SDS011;11469;49.024;8.246;2022-11-02T02:48:29;17.13;;;3.28;;
22603;SDS011;11469;49.024;8.246;2022-11-02T02:50:58;13.55;;;2.88;;
22603;SDS011;11469;49.024;8.246;2022-11-02T02:53:29;8.82;;;2.38;;
22603;SDS011;11469;49.024;8.246;2022-11-02T02:56:05;16.73;;;2.75;;
22603;SDS011;11469;49.024;8.246;2022-11-02T02:59:34;16.13;;;2.67;;
22603;SDS011;11469;49.024;8.246;2022-11-02T03:01:32;10.70;;;2.15;;
22603;SDS011;11469;49.024;8.246;2022-11-02T03:03:58;17.73;;;2.97;;
22603;SDS011;11469;49.024;8.246;2022-11-02T03:06:25;10.13;;;2.88;;
22603;SDS011;11469;49.024;8.246;2022-11-02T03:09:12;18.88;;;2.70;;
22603;SDS011;11469;49.024;8.246;2022-11-02T03:12:08;11.13;;;2.75;;
22603;SDS011;11469;49.024;8.246;2022-11-02T03:17:44;10.80;;;2.88;;
22603;SDS011;11469;49.024;8.246;2022-11-02T03:20:12;14.05;;;3.42;;
22603;SDS011;11469;49.024;8.246;2022-11-02T03:22:56;10.48;;;3.22;;
22603;SDS011;11469;49.024;8.246;2022-11-02T03:26:04;12.98;;;3.00;;
22603;SDS011;11469;49.024;8.246;2022-11-02T03:31:12;8.35;;;2.50;;
22603;SDS011;11469;49.024;8.246;2022-11-02T03:36:38;22.27;;;3.15;;
22603;SDS011;11469;49.024;8.246;2022-11-02T03:39:09;12.25;;;2.90;;
22603;SDS011;11469;49.024;8.246;2022-11-02T03:41:38;24.17;;;3.35;;
22603;SDS011;11469;49.024;8.246;2022-11-02T03:44:09;13.43;;;3.45;;
22603;SDS011;11469;49.024;8.246;2022-11-02T03:46:39;16.50;;;2.80;;
22603;SDS011;11469;49.024;8.246;2022-11-02T03:49:08;19.30;;;3.83;;
22603;SDS011;11469;49.024;8.246;2022-11-02T03:51:38;15.70;;;3.30;;
22603;SDS011;11469;49.024;8.246;2022-11-02T03:56:34;14.57;;;3.17;;
22603;SDS011;11469;49.024;8.246;2022-11-02T03:59:03;11.10;;;3.22;;
22603;SDS011;11469;49.024;8.246;2022-11-02T04:01:29;13.35;;;3.78;;
22603;SDS011;11469;49.024;8.246;2022-11-02T04:04:02;13.10;;;3.40;;
22603;SDS011;11469;49.024;8.246;2022-11-02T04:06:28;22.17;;;3.53;;
22603;SDS011;11469;49.024;8.246;2022-11-02T04:08:54;16.48;;;3.58;;
22603;SDS011;11469;49.024;8.246;2022-11-02T04:11:19;14.82;;;3.17;;
22603;SDS011;11469;49.024;8.246;2022-11-02T04:14:04;16.23;;;4.00;;
22603;SDS011;11469;49.024;8.246;2022-11-02T04:19:14;13.65;;;3.70;;
22603;SDS011;11469;49.024;8.246;2022-11-02T04:21:55;24.55;;;4.40;;
22603;SDS011;11469;49.024;8.246;2022-11-02T04:24:39;14.40;;;3.38;;
22603;SDS011;11469;49.024;8.246;2022-11-02T04:27:23;17.23;;;4.80;;
22603;SDS011;11469;49.024;8.246;2022-11-02T04:29:49;17.50;;;3.50;;
22603;SDS011;11469;49.024;8.246;2022-11-02T04:32:15;16.10;;;3.70;;
22603;SDS011;11469;49.024;8.246;2022-11-02T04:35:00;17.48;;;3.97;;
22603;SDS011;11469;49.024;8.246;2022-11-02T04:37:26;10.40;;;3.95;;
22603;SDS011;11469;49.024;8.246;2022-11-02T04:40:10;18.00;;;4.22;;
22603;SDS011;11469;49.024;8.246;2022-11-02T04:42:36;16.33;;;3.95;;
22603;SDS011;11469;49.024;8.246;2022-11-02T04:45:01;24.95;;;4.13;;
22603;SDS011;11469;49.024;8.246;2022-11-02T04:47:27;16.38;;;4.45;;
22603;SDS011;11469;49.024;8.246;2022-11-02T04:49:52;14.02;;;4.07;;
22603;SDS011;11469;49.024;8.246;2022-11-02T04:52:18;19.63;;;4.32;;
22603;SDS011;11469;49.024;8.246;2022-11-02T04:54:43;19.10;;;3.78;;
22603;SDS011;11469;49.024;8.246;2022-11-02T04:57:08;19.38;;;4.30;;
22603;SDS011;11469;49.024;8.246;2022-11-02T04:59:34;19.00;;;3.75;;
22603;SDS011;11469;49.024;8.246;2022-11-02T05:01:59;16.67;;;3.65;;
22603;SDS011;11469;49.024;8.246;2022-11-02T05:04:24;27.40;;;4.57;;
22603;SDS011;11469;49.024;8.246;2022-11-02T05:06:50;17.42;;;3.97;;
22603;SDS011;11469;49.024;8.246;2022-11-02T05:09:15;20.85;;;4.20;;
22603;SDS011;11469;49.024;8.246;2022-11-02T05:11:41;19.10;;;4.50;;
22603;SDS011;11469;49.024;8.246;2022-11-02T05:14:06;15.40;;;3.47;;
22603;SDS011;11469;49.024;8.246;2022-11-02T05:16:32;17.38;;;3.85;;
22603;SDS011;11469;49.024;8.246;2022-11-02T05:18:57;20.60;;;4.18;;
22603;SDS011;11469;49.024;8.246;2022-11-02T05:21:23;19.92;;;4.75;;
22603;SDS011;11469;49.024;8.246;2022-11-02T05:23:48;12.65;;;3.38;;
22603;SDS011;11469;49.024;8.246;2022-11-02T05:26:13;20.85;;;3.35;;
22603;SDS011;11469;49.024;8.246;2022-11-02T05:28:39;13.68;;;3.28;;
22603;SDS011;11469;49.024;8.246;2022-11-02T05:31:04;13.60;;;2.80;;
22603;SDS011;11469;49.024;8.246;2022-11-02T05:33:30;16.88;;;2.45;;
22603;SDS011;11469;49.024;8.246;2022-11-02T05:35:56;14.98;;;3.22;;
22603;SDS011;11469;49.024;8.246;2022-11-02T05:38:23;19.45;;;2.85;;
22603;SDS011;11469;49.024;8.246;2022-11-02T05:40:56;19.75;;;3.10;;
22603;SDS011;11469;49.024;8.246;2022-11-02T05:43:23;13.25;;;2.78;;
22603;SDS011;11469;49.024;8.246;2022-11-02T05:45:56;13.63;;;2.30;;
22603;SDS011;11469;49.024;8.246;2022-11-02T05:48:23;20.63;;;2.50;;
22603;SDS011;11469;49.024;8.246;2022-11-02T05:50:53;15.05;;;2.05;;
22603;SDS011;11469;49.024;8.246;2022-11-02T05:53:20;14.20;;;2.35;;
22603;SDS011;11469;49.024;8.246;2022-11-02T05:55:45;19.80;;;3.58;;
22603;SDS011;11469;49.024;8.246;2022-11-02T05:58:11;20.25;;;2.92;;
22603;SDS011;11469;49.024;8.246;2022-11-02T06:00:36;21.88;;;2.50;;
22603;SDS011;11469;49.024;8.246;2022-11-02T06:03:02;15.20;;;2.10;;
22603;SDS011;11469;49.024;8.246;2022-11-02T06:05:27;12.95;;;2.72;;
22603;SDS011;11469;49.024;8.246;2022-11-02T06:07:56;15.25;;;2.30;;
22603;SDS011;11469;49.024;8.246;2022-11-02T06:10:26;25.63;;;3.67;;
22603;SDS011;11469;49.024;8.246;2022-11-02T06:12:54;17.83;;;2.30;;
22603;SDS011;11469;49.024;8.246;2022-11-02T06:15:20;17.83;;;3.13;;
22603;SDS011;11469;49.024;8.246;2022-11-02T06:17:46;15.30;;;2.50;;
22603;SDS011;11469;49.024;8.246;2022-11-02T06:20:11;11.82;;;2.35;;
22603;SDS011;11469;49.024;8.246;2022-11-02T06:22:37;16.40;;;2.75;;
22603;SDS011;11469;49.024;8.246;2022-11-02T06:25:04;11.40;;;2.80;;
22603;SDS011;11469;49.024;8.246;2022-11-02T06:27:30;15.30;;;2.47;;
22603;SDS011;11469;49.024;8.246;2022-11-02T06:29:55;15.35;;;2.60;;
22603;SDS011;11469;49.024;8.246;2022-11-02T06:32:20;24.35;;;2.92;;
22603;SDS011;11469;49.024;8.246;2022-11-02T06:34:46;20.52;;;2.63;;
22603;SDS011;11469;49.024;8.246;2022-11-02T06:37:11;13.70;;;2.92;;
22603;SDS011;11469;49.024;8.246;2022-11-02T06:39:37;10.30;;;2.42;;
22603;SDS011;11469;49.024;8.246;2022-11-02T06:42:02;15.43;;;2.80;;
22603;SDS011;11469;49.024;8.246;2022-11-02T06:44:27;15.32;;;2.50;;
22603;SDS011;11469;49.024;8.246;2022-11-02T06:46:53;15.27;;;2.63;;
22603;SDS011;11469;49.024;8.246;2022-11-02T06:49:18;16.08;;;2.90;;
22603;SDS011;11469;49.024;8.246;2022-11-02T06:51:44;15.15;;;2.72;;
22603;SDS011;11469;49.024;8.246;2022-11-02T06:54:09;12.75;;;2.72;;
22603;SDS011;11469;49.024;8.246;2022-11-02T06:56:34;13.20;;;4.82;;
22603;SDS011;11469;49.024;8.246;2022-11-02T06:59:00;16.33;;;5.60;;
22603;SDS011;11469;49.024;8.246;2022-11-02T07:01:25;27.02;;;9.27;;
22603;SDS011;11469;49.024;8.246;2022-11-02T07:03:51;22.27;;;7.32;;
22603;SDS011;11469;49.024;8.246;2022-11-02T07:06:16;16.70;;;6.97;;
22603;SDS011;11469;49.024;8.246;2022-11-02T07:08:41;19.50;;;4.28;;
22603;SDS011;11469;49.024;8.246;2022-11-02T07:11:07;22.38;;;4.32;;
22603;SDS011;11469;49.024;8.246;2022-11-02T07:13:32;17.48;;;3.00;;
22603;SDS011;11469;49.024;8.246;2022-11-02T07:15:57;17.75;;;2.83;;
22603;SDS011;11469;49.024;8.246;2022-11-02T07:18:23;14.30;;;2.70;;
22603;SDS011;11469;49.024;8.246;2022-11-02T07:20:48;12.40;;;2.50;;
22603;SDS011;11469;49.024;8.246;2022-11-02T07:23:14;10.45;;;3.00;;
22603;SDS011;11469;49.024;8.246;2022-11-02T07:25:39;23.63;;;3.97;;
22603;SDS011;11469;49.024;8.246;2022-11-02T07:28:05;17.27;;;2.78;;
22603;SDS011;11469;49.024;8.246;2022-11-02T07:30:32;11.63;;;3.10;;
22603;SDS011;11469;49.024;8.246;2022-11-02T07:32:58;9.45;;;2.53;;
22603;SDS011;11469;49.024;8.246;2022-11-02T07:35:23;13.82;;;2.70;;
22603;SDS011;11469;49.024;8.246;2022-11-02T07:37:59;15.85;;;3.15;;
22603;SDS011;11469;49.024;8.246;2022-11-02T07:40:26;10.38;;;2.75;;
22603;SDS011;11469;49.024;8.246;2022-11-02T07:42:52;20.42;;;2.72;;
22603;SDS011;11469;49.024;8.246;2022-11-02T07:45:18;17.98;;;3.47;;
22603;SDS011;11469;49.024;8.246;2022-11-02T07:47:47;23.88;;;4.95;;
22603;SDS011;11469;49.024;8.246;2022-11-02T07:50:14;14.30;;;2.90;;
22603;SDS011;11469;49.024;8.246;2022-11-02T07:52:51;16.20;;;2.70;;
22603;SDS011;11469;49.024;8.246;2022-11-02T07:55:19;11.77;;;2.38;;
22603;SDS011;11469;49.024;8.246;2022-11-02T08:00:22;9.32;;;2.33;;
22603;SDS011;11469;49.024;8.246;2022-11-02T08:02:52;10.68;;;2.35;;
22603;SDS011;11469;49.024;8.246;2022-11-02T08:05:21;10.10;;;2.60;;
22603;SDS011;11469;49.024;8.246;2022-11-02T08:07:54;20.23;;;2.70;;
22603;SDS011;11469;49.024;8.246;2022-11-02T08:10:24;10.90;;;2.78;;
22603;SDS011;11469;49.024;8.246;2022-11-02T08:12:50;13.30;;;2.33;;
22603;SDS011;11469;49.024;8.246;2022-11-02T08:15:15;14.00;;;2.67;;
22603;SDS011;11469;49.024;8.246;2022-11-02T08:17:40;13.25;;;3.10;;
22603;SDS011;11469;49.024;8.246;2022-11-02T08:20:06;14.20;;;2.42;;
22603;SDS011;11469;49.024;8.246;2022-11-02T08:22:35;16.45;;;2.97;;
22603;SDS011;11469;49.024;8.246;2022-11-02T08:25:01;10.23;;;2.60;;
22603;SDS011;11469;49.024;8.246;2022-11-02T08:27:27;18.42;;;2.65;;
22603;SDS011;11469;49.024;8.246;2022-11-02T08:29:52;9.63;;;2.58;;
22603;SDS011;11469;49.024;8.246;2022-11-02T08:32:17;11.65;;;3.15;;
22603;SDS011;11469;49.024;8.246;2022-11-02T08:34:43;15.38;;;2.20;;
22603;SDS011;11469;49.024;8.246;2022-11-02T08:37:08;11.95;;;2.58;;
22603;SDS011;11469;49.024;8.246;2022-11-02T08:39:34;17.60;;;2.58;;
22603;SDS011;11469;49.024;8.246;2022-11-02T08:41:59;8.75;;;2.50;;
22603;SDS011;11469;49.024;8.246;2022-11-02T08:44:24;13.13;;;2.53;;
22603;SDS011;11469;49.024;8.246;2022-11-02T08:46:50;12.30;;;2.03;;
22603;SDS011;11469;49.024;8.246;2022-11-02T08:49:15;14.27;;;2.63;;
22603;SDS011;11469;49.024;8.246;2022-11-02T08:51:43;12.93;;;2.17;;
22603;SDS011;11469;49.024;8.246;2022-11-02T08:54:09;16.92;;;2.67;;
22603;SDS011;11469;49.024;8.246;2022-11-02T08:56:35;15.00;;;2.25;;
22603;SDS011;11469;49.024;8.246;2022-11-02T08:59:00;14.50;;;2.63;;
22603;SDS011;11469;49.024;8.246;2022-11-02T09:01:26;22.30;;;3.25;;
22603;SDS011;11469;49.024;8.246;2022-11-02T09:03:51;19.92;;;2.72;;
22603;SDS011;11469;49.024;8.246;2022-11-02T09:06:16;13.25;;;3.00;;
22603;SDS011;11469;49.024;8.246;2022-11-02T09:08:42;20.42;;;3.05;;
22603;SDS011;11469;49.024;8.246;2022-11-02T09:11:07;15.05;;;2.80;;
22603;SDS011;11469;49.024;8.246;2022-11-02T09:13:33;14.68;;;2.70;;
22603;SDS011;11469;49.024;8.246;2022-11-02T09:15:58;15.55;;;3.05;;
22603;SDS011;11469;49.024;8.246;2022-11-02T09:18:24;19.98;;;2.50;;
22603;SDS011;11469;49.024;8.246;2022-11-02T09:20:50;10.90;;;2.28;;
22603;SDS011;11469;49.024;8.246;2022-11-02T09:23:16;12.07;;;2.10;;
22603;SDS011;11469;49.024;8.246;2022-11-02T09:25:43;17.95;;;2.70;;
22603;SDS011;11469;49.024;8.246;2022-11-02T09:28:08;16.92;;;2.75;;
22603;SDS011;11469;49.024;8.246;2022-11-02T09:30:34;19.08;;;3.03;;
22603;SDS011;11469;49.024;8.246;2022-11-02T09:33:00;14.77;;;2.47;;
22603;SDS011;11469;49.024;8.246;2022-11-02T09:35:29;20.30;;;2.65;;
22603;SDS011;11469;49.024;8.246;2022-11-02T09:37:59;18.83;;;2.85;;
22603;SDS011;11469;49.024;8.246;2022-11-02T09:40:35;14.90;;;2.85;;
22603;SDS011;11469;49.024;8.246;2022-11-02T09:43:13;15.70;;;2.13;;
22603;SDS011;11469;49.024;8.246;2022-11-02T09:45:57;22.40;;;3.55;;
22603;SDS011;11469;49.024;8.246;2022-11-02T09:48:26;19.42;;;2.58;;
22603;SDS011;11469;49.024;8.246;2022-11-02T09:50:57;24.38;;;3.10;;
22603;SDS011;11469;49.024;8.246;2022-11-02T09:56:17;17.73;;;2.22;;
22603;SDS011;11469;49.024;8.246;2022-11-02T09:58:44;16.55;;;2.58;;
22603;SDS011;11469;49.024;8.246;2022-11-02T10:04:11;21.55;;;2.95;;
22603;SDS011;11469;49.024;8.246;2022-11-02T10:06:56;19.25;;;2.92;;
22603;SDS011;11469;49.024;8.246;2022-11-02T10:14:58;24.75;;;3.42;;
22603;SDS011;11469;49.024;8.246;2022-11-02T10:17:28;23.63;;;3.08;;
22603;SDS011;11469;49.024;8.246;2022-11-02T10:20:00;14.00;;;2.55;;
22603;SDS011;11469;49.024;8.246;2022-11-02T10:22:32;31.88;;;4.05;;
22603;SDS011;11469;49.024;8.246;2022-11-02T10:25:04;17.83;;;2.88;;
22603;SDS011;11469;49.024;8.246;2022-11-02T10:27:32;15.18;;;3.33;;
22603;SDS011;11469;49.024;8.246;2022-11-02T10:30:15;14.73;;;3.10;;
22603;SDS011;11469;49.024;8.246;2022-11-02T10:32:42;21.92;;;3.58;;
22603;SDS011;11469;49.024;8.246;2022-11-02T10:35:22;18.33;;;2.72;;
22603;SDS011;11469;49.024;8.246;2022-11-02T10:38:05;15.65;;;2.85;;
22603;SDS011;11469;49.024;8.246;2022-11-02T10:40:52;14.70;;;3.25;;
22603;SDS011;11469;49.024;8.246;2022-11-02T10:51:32;30.42;;;2.80;;
22603;SDS011;11469;49.024;8.246;2022-11-02T10:53:57;15.25;;;2.65;;
22603;SDS011;11469;49.024;8.246;2022-11-02T11:01:23;19.67;;;3.08;;
22603;SDS011;11469;49.024;8.246;2022-11-02T11:03:53;18.08;;;3.28;;
22603;SDS011;11469;49.024;8.246;2022-11-02T11:06:19;25.40;;;3.45;;
22603;SDS011;11469;49.024;8.246;2022-11-02T11:08:47;15.50;;;2.70;;
22603;SDS011;11469;49.024;8.246;2022-11-02T11:11:35;21.45;;;3.40;;
22603;SDS011;11469;49.024;8.246;2022-11-02T11:14:06;28.23;;;3.08;;
22603;SDS011;11469;49.024;8.246;2022-11-02T11:16:43;20.20;;;2.55;;
22603;SDS011;11469;49.024;8.246;2022-11-02T11:19:19;27.10;;;2.90;;
22603;SDS011;11469;49.024;8.246;2022-11-02T11:21:45;12.13;;;2.47;;
22603;SDS011;11469;49.024;8.246;2022-11-02T11:29:25;18.60;;;3.10;;
22603;SDS011;11469;49.024;8.246;2022-11-02T11:31:55;15.73;;;3.38;;
22603;SDS011;11469;49.024;8.246;2022-11-02T11:34:21;14.25;;;2.42;;
22603;SDS011;11469;49.024;8.246;2022-11-02T11:36:50;21.25;;;2.58;;
22603;SDS011;11469;49.024;8.246;2022-11-02T11:39:22;15.93;;;2.65;;
22603;SDS011;11469;49.024;8.246;2022-11-02T11:41:50;18.30;;;2.38;;
22603;SDS011;11469;49.024;8.246;2022-11-02T11:44:16;18.00;;;2.53;;
22603;SDS011;11469;49.024;8.246;2022-11-02T11:46:43;14.35;;;2.75;;
22603;SDS011;11469;49.024;8.246;2022-11-02T11:49:22;13.23;;;2.25;;
22603;SDS011;11469;49.024;8.246;2022-11-02T11:51:53;16.77;;;2.90;;
22603;SDS011;11469;49.024;8.246;2022-11-02T11:54:24;14.40;;;2.17;;
22603;SDS011;11469;49.024;8.246;2022-11-02T11:56:52;14.38;;;2.47;;
22603;SDS011;11469;49.024;8.246;2022-11-02T12:01:54;16.02;;;2.30;;
22603;SDS011;11469;49.024;8.246;2022-11-02T12:04:25;13.38;;;2.30;;
22603;SDS011;11469;49.024;8.246;2022-11-02T12:10:06;26.30;;;3.15;;
22603;SDS011;11469;49.024;8.246;2022-11-02T12:12:51;16.52;;;2.30;;
22603;SDS011;11469;49.024;8.246;2022-11-02T12:20:48;15.02;;;2.30;;
22603;SDS011;11469;49.024;8.246;2022-11-02T12:29:19;15.63;;;2.38;;
22603;SDS011;11469;49.024;8.246;2022-11-02T12:31:57;10.98;;;2.17;;
22603;SDS011;11469;49.024;8.246;2022-11-02T12:34:48;13.18;;;2.05;;
22603;SDS011;11469;49.024;8.246;2022-11-02T12:40:26;12.20;;;2.60;;
22603;SDS011;11469;49.024;8.246;2022-11-02T12:48:56;18.73;;;2.42;;
22603;SDS011;11469;49.024;8.246;2022-11-02T12:51:25;15.10;;;2.65;;
22603;SDS011;11469;49.024;8.246;2022-11-02T12:53:58;20.10;;;2.63;;
22603;SDS011;11469;49.024;8.246;2022-11-02T12:56:47;18.52;;;3.28;;
22603;SDS011;11469;49.024;8.246;2022-11-02T12:59:23;19.92;;;2.72;;
22603;SDS011;11469;49.024;8.246;2022-11-02T13:04:45;14.90;;;2.38;;
22603;SDS011;11469;49.024;8.246;2022-11-02T13:07:17;14.02;;;2.03;;
22603;SDS011;11469;49.024;8.246;2022-11-02T13:12:40;13.55;;;2.30;;
22603;SDS011;11469;49.024;8.246;2022-11-02T13:15:11;10.52;;;1.95;;
22603;SDS011;11469;49.024;8.246;2022-11-02T13:17:48;20.10;;;4.15;;
22603;SDS011;11469;49.024;8.246;2022-11-02T13:20:22;14.90;;;2.20;;
22603;SDS011;11469;49.024;8.246;2022-11-02T13:23:01;13.75;;;2.47;;
22603;SDS011;11469;49.024;8.246;2022-11-02T13:25:37;11.82;;;1.95;;
22603;SDS011;11469;49.024;8.246;2022-11-02T13:31:04;14.85;;;3.92;;
22603;SDS011;11469;49.024;8.246;2022-11-02T13:33:48;14.63;;;2.30;;
22603;SDS011;11469;49.024;8.246;2022-11-02T13:36:17;29.73;;;12.52;;
22603;SDS011;11469;49.024;8.246;2022-11-02T13:38:47;10.75;;;2.17;;
22603;SDS011;11469;49.024;8.246;2022-11-02T13:49:49;10.20;;;2.38;;
22603;SDS011;11469;49.024;8.246;2022-11-02T13:52:19;14.00;;;2.28;;
22603;SDS011;11469;49.024;8.246;2022-11-02T13:54:58;15.05;;;2.72;;
22603;SDS011;11469;49.024;8.246;2022-11-02T14:00:25;16.00;;;2.83;;
22603;SDS011;11469;49.024;8.246;2022-11-02T14:03:10;21.15;;;2.38;;
22603;SDS011;11469;49.024;8.246;2022-11-02T14:05:47;15.38;;;2.58;;
22603;SDS011;11469;49.024;8.246;2022-11-02T14:08:17;12.13;;;2.22;;
22603;SDS011;11469;49.024;8.246;2022-11-02T14:32:00;15.18;;;2.47;;
22603;SDS011;11469;49.024;8.246;2022-11-02T14:34:42;9.73;;;2.03;;
22603;SDS011;11469;49.024;8.246;2022-11-02T14:45:43;14.82;;;2.60;;
22603;SDS011;11469;49.024;8.246;2022-11-02T14:48:14;10.90;;;2.22;;
22603;SDS011;11469;49.024;8.246;2022-11-02T14:50:41;15.30;;;2.42;;
22603;SDS011;11469;49.024;8.246;2022-11-02T14:53:20;13.85;;;3.10;;
22603;SDS011;11469;49.024;8.246;2022-11-02T14:55:52;13.35;;;2.67;;
22603;SDS011;11469;49.024;8.246;2022-11-02T14:58:20;9.35;;;2.70;;
22603;SDS011;11469;49.024;8.246;2022-11-02T15:03:34;15.77;;;3.30;;
22603;SDS011;11469;49.024;8.246;2022-11-02T15:08:30;9.10;;;2.80;;
22603;SDS011;11469;49.024;8.246;2022-11-02T15:10:58;12.85;;;2.60;;
22603;SDS011;11469;49.024;8.246;2022-11-02T15:13:47;15.50;;;2.78;;
22603;SDS011;11469;49.024;8.246;2022-11-02T15:18:37;12.77;;;2.80;;
22603;SDS011;11469;49.024;8.246;2022-11-02T15:23:41;14.45;;;3.13;;
22603;SDS011;11469;49.024;8.246;2022-11-02T15:26:17;16.80;;;3.13;;
22603;SDS011;11469;49.024;8.246;2022-11-02T15:28:48;12.95;;;3.00;;
22603;SDS011;11469;49.024;8.246;2022-11-02T15:31:16;11.73;;;2.60;;
22603;SDS011;11469;49.024;8.246;2022-11-02T15:33:45;7.72;;;2.63;;
22603;SDS011;11469;49.024;8.246;2022-11-02T15:36:17;15.02;;;3.40;;
22603;SDS011;11469;49.024;8.246;2022-11-02T15:38:49;12.27;;;2.78;;
22603;SDS011;11469;49.024;8.246;2022-11-02T15:41:19;11.00;;;2.90;;
22603;SDS011;11469;49.024;8.246;2022-11-02T16:00:18;19.40;;;4.93;;
22603;SDS011;11469;49.024;8.246;2022-11-02T16:02:48;21.55;;;5.88;;
22603;SDS011;11469;49.024;8.246;2022-11-02T16:05:25;17.88;;;5.00;;
22603;SDS011;11469;49.024;8.246;2022-11-02T16:07:54;25.80;;;8.25;;
22603;SDS011;11469;49.024;8.246;2022-11-02T16:10:21;13.32;;;4.57;;
22603;SDS011;11469;49.024;8.246;2022-11-02T16:15:42;15.60;;;3.22;;
22603;SDS011;11469;49.024;8.246;2022-11-02T16:20:59;13.25;;;3.20;;
22603;SDS011;11469;49.024;8.246;2022-11-02T16:23:27;16.13;;;3.40;;
22603;SDS011;11469;49.024;8.246;2022-11-02T16:25:55;11.57;;;2.92;;
22603;SDS011;11469;49.024;8.246;2022-11-02T16:28:23;19.25;;;3.30;;
22603;SDS011;11469;49.024;8.246;2022-11-02T16:31:17;16.05;;;5.20;;
22603;SDS011;11469;49.024;8.246;2022-11-02T16:39:05;12.75;;;3.08;;
22603;SDS011;11469;49.024;8.246;2022-11-02T16:41:40;13.13;;;3.97;;
22603;SDS011;11469;49.024;8.246;2022-11-02T16:44:16;14.13;;;3.45;;
22603;SDS011;11469;49.024;8.246;2022-11-02T16:49:31;14.40;;;3.47;;
22603;SDS011;11469;49.024;8.246;2022-11-02T16:52:17;10.98;;;3.00;;
22603;SDS011;11469;49.024;8.246;2022-11-02T16:54:45;20.88;;;8.93;;
22603;SDS011;11469;49.024;8.246;2022-11-02T16:59:37;29.00;;;14.82;;
22603;SDS011;11469;49.024;8.246;2022-11-02T17:02:11;28.85;;;9.98;;
22603;SDS011;11469;49.024;8.246;2022-11-02T17:04:39;20.25;;;7.63;;
22603;SDS011;11469;49.024;8.246;2022-11-02T17:07:10;16.17;;;5.78;;
22603;SDS011;11469;49.024;8.246;2022-11-02T17:09:49;27.23;;;9.27;;
22603;SDS011;11469;49.024;8.246;2022-11-02T17:12:18;22.77;;;8.98;;
22603;SDS011;11469;49.024;8.246;2022-11-02T17:14:48;18.92;;;8.80;;
22603;SDS011;11469;49.024;8.246;2022-11-02T17:19:55;29.73;;;12.15;;
22603;SDS011;11469;49.024;8.246;2022-11-02T17:25:29;23.53;;;6.07;;
22603;SDS011;11469;49.024;8.246;2022-11-02T17:27:57;19.00;;;6.85;;
22603;SDS011;11469;49.024;8.246;2022-11-02T17:33:21;35.78;;;12.98;;
22603;SDS011;11469;49.024;8.246;2022-11-02T17:35:53;23.48;;;10.27;;
22603;SDS011;11469;49.024;8.246;2022-11-02T17:38:30;29.23;;;10.65;;
22603;SDS011;11469;49.024;8.246;2022-11-02T17:40:56;29.02;;;10.55;;
22603;SDS011;11469;49.024;8.246;2022-11-02T17:43:24;26.55;;;11.32;;
22603;SDS011;11469;49.024;8.246;2022-11-02T17:45:56;44.83;;;20.58;;
22603;SDS011;11469;49.024;8.246;2022-11-02T17:48:22;41.88;;;20.10;;
22603;SDS011;11469;49.024;8.246;2022-11-02T17:50:50;36.20;;;15.90;;
22603;SDS011;11469;49.024;8.246;2022-11-02T17:53:18;32.17;;;15.45;;
22603;SDS011;11469;49.024;8.246;2022-11-02T17:55:43;40.38;;;18.35;;
22603;SDS011;11469;49.024;8.246;2022-11-02T17:58:09;23.50;;;10.75;;
22603;SDS011;11469;49.024;8.246;2022-11-02T18:00:34;22.67;;;8.85;;
22603;SDS011;11469;49.024;8.246;2022-11-02T18:03:01;23.58;;;8.82;;